Time;durP1;ratioP1;P1;durP2;ratioP2;P2;SDS_P1;SDS_P2;PMS_P1;PMS_P2;Temp;Humidity;BMP_temperature;BMP_pressure;BME280_temperature;BME280_humidity;BME280_pressure;Samples;Min_cycle;Max_cycle;Signal;HPM_P1;HPM_P2
2023/03/30 00:01:08;;;;;;;;;;;;;;;15.48;nan;100046.00;5037021;28;19917;-84
2023/03/30 00:03:37;;;;;;;;;;;;;;;15.47;nan;100041.69;5038742;28;20031;-84
2023/03/30 00:06:04;;;;;;;;;;;;;;;15.44;nan;100034.06;5034694;28;20138;-82
2023/03/30 00:08:29;;;;;;;;;;;;;;;15.41;nan;100037.94;5034310;28;19917;-81
2023/03/30 00:11:00;;;;;;;;;;;;;;;15.37;nan;100026.03;5034884;28;19924;-84
2023/03/30 00:13:26;;;;;;;;;;;;;;;15.32;nan;100019.66;5032444;28;19917;-84
2023/03/30 00:15:52;;;;;;;;;;;;;;;15.28;nan;100017.38;5016236;28;20094;-83
2023/03/30 00:18:17;;;;;;;;;;;;;;;15.25;nan;100007.13;5034852;28;19933;-82
2023/03/30 00:20:43;;;;;;;;;;;;;;;15.25;nan;100016.94;5017527;28;19923;-81
2023/03/30 00:23:09;;;;;;;;;;;;;;;15.26;nan;100013.28;5034577;28;20329;-82
2023/03/30 00:25:35;;;;;;;;;;;;;;;15.28;nan;100006.72;5042853;28;19949;-82
2023/03/30 00:28:00;;;;;;;;;;;;;;;15.28;nan;100011.25;5037812;28;20297;-83
2023/03/30 00:30:25;;;;;;;;;;;;;;;15.25;nan;100016.94;5035486;28;20007;-83
2023/03/30 00:32:50;;;;;;;;;;;;;;;15.21;nan;100013.84;5037229;28;19917;-83
2023/03/30 00:35:16;;;;;;;;;;;;;;;15.20;nan;100014.03;5038542;28;19921;-82
2023/03/30 00:37:44;;;;;;;;;;;;;;;15.18;nan;99998.28;5036959;28;19944;-82
2023/03/30 00:40:13;;;;;;;;;;;;;;;15.14;nan;99999.66;5036838;28;19923;-84
2023/03/30 00:42:38;;;;;;;;;;;;;;;15.14;nan;99990.88;5036860;28;19947;-82
2023/03/30 00:45:06;;;;;;;;;;;;;;;15.11;nan;100001.88;5039154;28;19916;-84
2023/03/30 00:47:33;;;;;;;;;;;;;;;15.09;nan;99996.78;5036761;28;19925;-84
2023/03/30 00:49:59;;;;;;;;;;;;;;;15.00;nan;99992.59;5035372;28;19924;-83
2023/03/30 00:52:26;;;;;;;;;;;;;;;14.96;nan;99997.47;5034960;28;19921;-83
2023/03/30 00:54:52;;;;;;;;;;;;;;;14.92;nan;99995.41;5035635;28;20445;-81
2023/03/30 00:57:21;;;;;;;;;;;;;;;14.94;nan;100004.84;5037077;28;19925;-82
2023/03/30 00:59:46;;;;;;;;;;;;;;;14.95;nan;100001.16;5034772;28;19978;-81
2023/03/30 01:02:11;;;;;;;;;;;;;;;14.96;nan;99992.16;5016761;28;20378;-83
2023/03/30 01:04:37;;;;;;;;;;;;;;;15.06;nan;99981.16;5032621;28;20394;-81
2023/03/30 01:07:03;;;;;;;;;;;;;;;15.15;nan;99968.53;5034383;28;19992;-81
2023/03/30 01:09:29;;;;;;;;;;;;;;;15.21;nan;99973.91;5035961;28;19917;-82
2023/03/30 01:11:54;;;;;;;;;;;;;;;15.29;nan;99988.91;5036095;28;19976;-83
2023/03/30 01:14:19;;;;;;;;;;;;;;;15.29;nan;99989.72;5013516;28;19928;-83
2023/03/30 01:16:55;;;;;;;;;;;;;;;15.29;nan;99986.25;5016329;28;20079;-81
2023/03/30 01:19:43;;;;;;;;;;;;;;;15.25;nan;99991.16;5037281;28;19953;-82
2023/03/30 01:22:27;;;;;;;;;;;;;;;15.24;nan;99989.47;5016759;28;19917;-82
2023/03/30 01:25:08;;;;;;;;;;;;;;;15.27;nan;99988.28;5035073;28;19943;-82
2023/03/30 01:27:38;;;;;;;;;;;;;;;15.24;nan;99989.47;5034018;28;19924;-83
2023/03/30 01:30:07;;;;;;;;;;;;;;;15.31;nan;99984.19;5031400;28;20363;-83
2023/03/30 01:32:48;;;;;;;;;;;;;;;15.35;nan;99996.13;5035083;28;20444;-82
2023/03/30 01:35:22;;;;;;;;;;;;;;;15.37;nan;99991.41;5031456;28;20389;-82
2023/03/30 01:38:07;;;;;;;;;;;;;;;15.35;nan;99992.63;5014286;28;19920;-83
2023/03/30 01:40:45;;;;;;;;;;;;;;;15.35;nan;99989.94;5033431;28;20334;-82
2023/03/30 01:43:16;;;;;;;;;;;;;;;15.36;nan;99997.75;5033811;28;19917;-83
2023/03/30 01:45:43;;;;;;;;;;;;;;;15.36;nan;99996.94;5032410;28;19917;-82
2023/03/30 01:48:11;;;;;;;;;;;;;;;15.40;nan;100000.88;5032760;28;19971;-79
2023/03/30 01:50:41;;;;;;;;;;;;;;;15.42;nan;100002.31;5034811;28;19985;-82
2023/03/30 01:53:12;;;;;;;;;;;;;;;15.44;nan;100008.25;5028067;28;19927;-81
2023/03/30 01:55:40;;;;;;;;;;;;;;;15.44;nan;100000.25;5033993;28;22297;-81
2023/03/30 01:58:09;;;;;;;;;;;;;;;15.40;nan;100001.69;5037140;28;19921;-83
2023/03/30 02:00:35;;;;;;;;;;;;;;;15.40;nan;99999.03;5019244;28;19923;-84
2023/03/30 02:03:07;;;;;;;;;;;;;;;15.38;nan;99986.91;5033402;28;19916;-83
2023/03/30 02:05:33;;;;;;;;;;;;;;;15.39;nan;100001.88;5034264;28;20012;-83
2023/03/30 02:08:01;;;;;;;;;;;;;;;15.37;nan;100010.03;5034625;28;19995;-82
2023/03/30 02:10:29;;;;;;;;;;;;;;;15.39;nan;100005.34;5030798;28;20013;-82
2023/03/30 02:12:56;;;;;;;;;;;;;;;15.41;nan;100015.81;5015713;28;19923;-82
2023/03/30 02:15:23;;;;;;;;;;;;;;;15.40;nan;100006.19;5032626;28;19963;-83
2023/03/30 02:17:48;;;;;;;;;;;;;;;15.38;nan;100022.38;5031616;28;19929;-80
2023/03/30 02:20:16;;;;;;;;;;;;;;;15.22;nan;100007.50;5031218;28;19916;-82
2023/03/30 02:22:42;;;;;;;;;;;;;;;15.07;nan;100025.44;5032339;28;19972;-83
2023/03/30 02:25:07;;;;;;;;;;;;;;;14.76;nan;100034.59;5029258;28;19975;-83
2023/03/30 02:27:33;;;;;;;;;;;;;;;14.42;nan;100032.59;5014010;28;19936;-83
2023/03/30 02:29:59;;;;;;;;;;;;;;;14.09;nan;100021.59;5034308;28;19998;-81
2023/03/30 02:32:26;;;;;;;;;;;;;;;13.87;nan;100012.72;5033534;28;19917;-83
2023/03/30 02:35:07;;;;;;;;;;;;;;;13.70;nan;99981.06;5013072;28;20660;-83
2023/03/30 02:37:45;;;;;;;;;;;;;;;13.41;nan;99992.53;5038691;28;20608;-84
2023/03/30 02:40:29;;;;;;;;;;;;;;;13.31;nan;99995.47;5027213;28;19925;-83
2023/03/30 02:43:02;;;;;;;;;;;;;;;13.15;nan;100008.88;5042772;28;19917;-82
2023/03/30 02:45:44;;;;;;;;;;;;;;;13.11;nan;100010.25;5043462;28;19986;-80
2023/03/30 02:48:28;;;;;;;;;;;;;;;13.06;nan;100015.25;5032847;28;19940;-82
2023/03/30 02:51:04;;;;;;;;;;;;;;;13.07;nan;100006.31;5033020;28;19943;-83
2023/03/30 02:53:38;;;;;;;;;;;;;;;13.21;nan;99992.22;5017565;28;19917;-82
2023/03/30 02:56:22;;;;;;;;;;;;;;;13.41;nan;99991.72;5035139;28;19971;-82
2023/03/30 02:58:56;;;;;;;;;;;;;;;13.56;nan;99980.09;5014392;28;19973;-80
2023/03/30 03:01:33;;;;;;;;;;;;;;;13.64;nan;99976.50;5030300;28;19929;-81
2023/03/30 03:04:00;;;;;;;;;;;;;;;13.47;nan;99997.13;5034075;28;19917;-82
2023/03/30 03:06:26;;;;;;;;;;;;;;;13.36;nan;99994.91;5017749;28;20371;-81
2023/03/30 03:08:53;;;;;;;;;;;;;;;13.28;nan;99997.66;5032801;28;20020;-83
2023/03/30 03:11:19;;;;;;;;;;;;;;;13.18;nan;100001.38;5014278;28;20047;-82
2023/03/30 03:13:44;;;;;;;;;;;;;;;13.17;nan;100009.53;5032964;28;19936;-84
2023/03/30 03:16:10;;;;;;;;;;;;;;;13.15;nan;100008.88;5033052;28;19921;-82
2023/03/30 03:18:38;;;;;;;;;;;;;;;13.14;nan;99993.97;5027433;28;19932;-82
2023/03/30 03:21:04;;;;;;;;;;;;;;;13.09;nan;99985.72;5012709;28;19976;-82
2023/03/30 03:23:29;;;;;;;;;;;;;;;13.07;nan;99983.25;5032894;28;19917;-82
2023/03/30 03:25:54;;;;;;;;;;;;;;;13.05;nan;99981.78;5030770;28;19924;-86
2023/03/30 03:28:20;;;;;;;;;;;;;;;13.06;nan;99978.09;5031509;28;19921;-82
2023/03/30 03:30:47;;;;;;;;;;;;;;;13.07;nan;99979.75;5041003;28;19917;-83
2023/03/30 03:33:12;;;;;;;;;;;;;;;13.12;nan;99966.75;5017335;28;19983;-82
2023/03/30 03:35:38;;;;;;;;;;;;;;;13.28;nan;99966.63;5035545;28;20329;-82
2023/03/30 03:38:03;;;;;;;;;;;;;;;13.43;nan;99965.81;5037850;28;19939;-82
2023/03/30 03:40:28;;;;;;;;;;;;;;;13.56;nan;99963.28;5022470;28;19924;-81
2023/03/30 03:42:53;;;;;;;;;;;;;;;13.65;nan;99964.84;5029580;28;19921;-80
2023/03/30 03:45:19;;;;;;;;;;;;;;;13.72;nan;99952.47;5043635;28;19916;-81
2023/03/30 03:47:44;;;;;;;;;;;;;;;13.78;nan;99941.09;5041133;28;19916;-81
2023/03/30 03:50:10;;;;;;;;;;;;;;;13.80;nan;99947.06;5044052;28;19964;-81
2023/03/30 03:52:35;;;;;;;;;;;;;;;13.84;nan;99928.06;5032595;28;19917;-83
2023/03/30 03:55:01;;;;;;;;;;;;;;;13.88;nan;99932.81;5043054;28;19913;-83
2023/03/30 03:57:26;;;;;;;;;;;;;;;13.91;nan;99937.75;5043532;28;19921;-81
2023/03/30 03:59:53;;;;;;;;;;;;;;;13.97;nan;99938.84;5019630;28;19929;-84
2023/03/30 04:02:18;;;;;;;;;;;;;;;14.00;nan;99933.16;5040438;28;19913;-83
2023/03/30 04:04:44;;;;;;;;;;;;;;;14.04;nan;99929.13;5022917;28;20004;-84
2023/03/30 04:07:10;;;;;;;;;;;;;;;14.05;nan;99933.41;5044245;28;20169;-83
2023/03/30 04:09:35;;;;;;;;;;;;;;;14.12;nan;99928.16;5039800;28;20358;-83
2023/03/30 04:12:01;;;;;;;;;;;;;;;14.15;nan;99907.31;5019013;28;19928;-84
2023/03/30 04:14:26;;;;;;;;;;;;;;;14.22;nan;99900.22;5037034;28;19941;-80
2023/03/30 04:16:51;;;;;;;;;;;;;;;14.24;nan;99894.72;5038429;28;20400;-82
2023/03/30 04:19:16;;;;;;;;;;;;;;;14.29;nan;99888.84;5036872;28;19940;-83
2023/03/30 04:21:45;;;;;;;;;;;;;;;14.30;nan;99880.69;5036131;28;19921;-83
2023/03/30 04:24:11;;;;;;;;;;;;;;;14.33;nan;99869.66;5036134;28;20282;-81
2023/03/30 04:26:36;;;;;;;;;;;;;;;14.37;nan;99870.94;5036139;28;19928;-81
2023/03/30 04:29:03;;;;;;;;;;;;;;;14.37;nan;99865.59;5037067;28;20370;-82
2023/03/30 04:31:33;;;;;;;;;;;;;;;14.39;nan;99858.22;5035837;28;19921;-83
2023/03/30 04:34:01;;;;;;;;;;;;;;;14.39;nan;99844.94;5034695;28;19925;-82
2023/03/30 04:36:26;;;;;;;;;;;;;;;14.41;nan;99840.25;5037760;28;20011;-83
2023/03/30 04:38:58;;;;;;;;;;;;;;;14.40;nan;99845.78;5019175;28;19917;-81
2023/03/30 04:41:34;;;;;;;;;;;;;;;14.38;nan;99855.78;5036350;28;20020;-80
2023/03/30 04:44:01;;;;;;;;;;;;;;;14.35;nan;99864.97;5038001;28;19917;-82
2023/03/30 04:46:26;;;;;;;;;;;;;;;14.27;nan;99858.97;5036703;28;19917;-83
2023/03/30 04:48:51;;;;;;;;;;;;;;;14.23;nan;99866.50;5039191;28;19936;-82
2023/03/30 04:51:16;;;;;;;;;;;;;;;14.21;nan;99872.00;5019094;28;20474;-82
2023/03/30 04:53:41;;;;;;;;;;;;;;;14.24;nan;99868.97;5039635;28;19912;-83
2023/03/30 04:56:07;;;;;;;;;;;;;;;14.28;nan;99865.91;5039832;28;19962;-84
2023/03/30 04:58:32;;;;;;;;;;;;;;;14.29;nan;99868.38;5042803;28;20003;-80
2023/03/30 05:00:57;;;;;;;;;;;;;;;14.30;nan;99864.72;5044014;28;19920;-84
2023/03/30 05:03:22;;;;;;;;;;;;;;;14.31;nan;99862.88;5021910;28;19921;-82
2023/03/30 05:05:47;;;;;;;;;;;;;;;14.32;nan;99859.19;5026902;28;19923;-82
2023/03/30 05:08:13;;;;;;;;;;;;;;;14.32;nan;99861.84;5033035;28;20406;-82
2023/03/30 05:10:38;;;;;;;;;;;;;;;14.31;nan;99866.38;5016433;28;19917;-83
2023/03/30 05:13:03;;;;;;;;;;;;;;;14.31;nan;99876.19;5034849;28;19917;-83
2023/03/30 05:15:28;;;;;;;;;;;;;;;14.26;nan;99868.78;5032779;28;20297;-82
2023/03/30 05:17:53;;;;;;;;;;;;;;;14.26;nan;99867.97;5033790;28;19917;-84
2023/03/30 05:20:19;;;;;;;;;;;;;;;14.24;nan;99866.31;5033045;28;19921;-83
2023/03/30 05:22:45;;;;;;;;;;;;;;;14.25;nan;99880.41;5029783;28;20383;-80
2023/03/30 05:25:11;;;;;;;;;;;;;;;14.19;nan;99873.22;5030115;28;19917;-82
2023/03/30 05:27:36;;;;;;;;;;;;;;;14.13;nan;99879.28;5015192;28;20000;-84
2023/03/30 05:30:02;;;;;;;;;;;;;;;14.11;nan;99884.81;5025733;28;19935;-81
2023/03/30 05:32:28;;;;;;;;;;;;;;;14.10;nan;99896.44;5037741;28;19956;-82
2023/03/30 05:34:53;;;;;;;;;;;;;;;14.12;nan;99890.94;5036639;28;19990;-81
2023/03/30 05:37:18;;;;;;;;;;;;;;;14.03;nan;99900.88;5035785;28;19921;-82
2023/03/30 05:39:43;;;;;;;;;;;;;;;13.98;nan;99898.78;5019211;28;19940;-81
2023/03/30 05:42:09;;;;;;;;;;;;;;;13.92;nan;99904.88;5038604;28;19935;-83
2023/03/30 05:44:34;;;;;;;;;;;;;;;13.83;nan;99918.47;5027645;28;19951;-81
2023/03/30 05:47:00;;;;;;;;;;;;;;;13.84;nan;99925.41;5038029;28;20411;-83
2023/03/30 05:49:25;;;;;;;;;;;;;;;13.83;nan;99950.34;5045976;28;20144;-81
2023/03/30 05:51:50;;;;;;;;;;;;;;;13.70;nan;99982.88;5021979;28;20130;-82
2023/03/30 05:54:16;;;;;;;;;;;;;;;13.48;nan;100013.88;5021171;28;20016;-83
2023/03/30 05:56:41;;;;;;;;;;;;;;;13.24;nan;100034.34;5022368;28;19924;-80
2023/03/30 05:59:07;;;;;;;;;;;;;;;12.92;nan;100064.66;5036091;28;19927;-82
2023/03/30 06:01:32;;;;;;;;;;;;;;;12.64;nan;100067.84;5016651;28;19963;-82
2023/03/30 06:03:58;;;;;;;;;;;;;;;12.54;nan;100065.44;5040173;28;19928;-79
2023/03/30 06:06:23;;;;;;;;;;;;;;;12.49;nan;100051.88;5035292;28;20324;-84
2023/03/30 06:08:48;;;;;;;;;;;;;;;12.46;nan;100067.28;5034843;28;19917;-82
2023/03/30 06:11:13;;;;;;;;;;;;;;;12.40;nan;100081.28;5018154;28;20045;-83
2023/03/30 06:13:39;;;;;;;;;;;;;;;12.39;nan;100091.03;5036705;28;19944;-83
2023/03/30 06:16:04;;;;;;;;;;;;;;;12.38;nan;100081.44;5036749;28;19917;-82
2023/03/30 06:18:30;;;;;;;;;;;;;;;12.34;nan;100074.81;5018746;28;20292;-84
2023/03/30 06:20:56;;;;;;;;;;;;;;;12.32;nan;100060.91;5017798;28;19923;-83
2023/03/30 06:23:21;;;;;;;;;;;;;;;12.22;nan;100069.09;5017846;28;19956;-83
2023/03/30 06:25:51;;;;;;;;;;;;;;;12.14;nan;100090.34;5037792;28;19917;-83
2023/03/30 06:28:16;;;;;;;;;;;;;;;12.13;nan;100087.84;5019652;28;19920;-85
2023/03/30 06:30:42;;;;;;;;;;;;;;;12.09;nan;100082.09;5037196;28;19916;-83
2023/03/30 06:33:07;;;;;;;;;;;;;;;12.04;nan;100090.56;5037781;28;20004;-84
2023/03/30 06:35:32;;;;;;;;;;;;;;;12.01;nan;100090.91;5040496;28;19931;-81
2023/03/30 06:37:57;;;;;;;;;;;;;;;12.02;nan;100086.44;5026014;28;19913;-83
2023/03/30 06:40:22;;;;;;;;;;;;;;;11.99;nan;100102.66;5032984;28;19959;-84
2023/03/30 06:42:48;;;;;;;;;;;;;;;12.00;nan;100099.00;5014710;28;19959;-82
2023/03/30 06:45:13;;;;;;;;;;;;;;;12.00;nan;100081.28;5039305;28;19997;-83
2023/03/30 06:47:40;;;;;;;;;;;;;;;11.98;nan;100080.63;5035049;28;19913;-84
2023/03/30 06:50:05;;;;;;;;;;;;;;;12.00;nan;100049.50;5014822;28;19916;-84
2023/03/30 06:52:34;;;;;;;;;;;;;;;11.95;nan;100037.75;5040745;28;19916;-80
2023/03/30 06:55:00;;;;;;;;;;;;;;;11.94;nan;100046.69;5045858;28;19921;-83
2023/03/30 06:57:25;;;;;;;;;;;;;;;11.93;nan;100040.56;5027067;28;19966;-83
2023/03/30 06:59:50;;;;;;;;;;;;;;;11.95;nan;100012.09;5029800;28;19945;-82
2023/03/30 07:02:16;;;;;;;;;;;;;;;11.97;nan;100014.56;5039693;28;19981;-83
2023/03/30 07:04:41;;;;;;;;;;;;;;;11.97;nan;100026.00;5032360;28;20194;-83
2023/03/30 07:07:07;;;;;;;;;;;;;;;11.99;nan;100021.34;5034448;28;20011;-83
2023/03/30 07:09:32;;;;;;;;;;;;;;;12.00;nan;100008.91;5016314;28;19913;-83
2023/03/30 07:11:57;;;;;;;;;;;;;;;12.04;nan;100019.00;5016043;28;20273;-84
2023/03/30 07:14:22;;;;;;;;;;;;;;;12.05;nan;100010.03;5030413;28;19917;-84
2023/03/30 07:16:48;;;;;;;;;;;;;;;12.04;nan;100018.19;5034964;28;19921;-84
2023/03/30 07:19:13;;;;;;;;;;;;;;;12.03;nan;100014.69;5042759;28;19993;-83
2023/03/30 07:21:38;;;;;;;;;;;;;;;12.02;nan;100018.34;5018034;28;20444;-85
2023/03/30 07:24:04;;;;;;;;;;;;;;;12.02;nan;100023.66;5019884;28;19913;-84
2023/03/30 07:26:29;;;;;;;;;;;;;;;12.02;nan;100022.81;5040858;28;19913;-83
2023/03/30 07:28:55;;;;;;;;;;;;;;;12.01;nan;100024.66;5042708;28;20253;-84
2023/03/30 07:31:20;;;;;;;;;;;;;;;11.98;nan;100026.81;5040811;28;19913;-84
2023/03/30 07:33:46;;;;;;;;;;;;;;;11.99;nan;100034.59;5040356;28;19924;-84
2023/03/30 07:36:11;;;;;;;;;;;;;;;11.98;nan;100040.88;5022007;28;19920;-83
2023/03/30 07:38:37;;;;;;;;;;;;;;;11.95;nan;100038.59;5040687;28;19939;-84
2023/03/30 07:41:05;;;;;;;;;;;;;;;11.94;nan;100029.00;5040241;28;19917;-83
2023/03/30 07:43:30;;;;;;;;;;;;;;;11.95;nan;100005.97;5022567;28;19970;-83
2023/03/30 07:45:56;;;;;;;;;;;;;;;11.93;nan;99986.78;5040664;28;19948;-83
2023/03/30 07:48:21;;;;;;;;;;;;;;;11.92;nan;99993.91;5023435;28;20109;-84
2023/03/30 07:50:46;;;;;;;;;;;;;;;11.90;nan;99978.16;5046728;28;19923;-85
2023/03/30 07:53:11;;;;;;;;;;;;;;;11.87;nan;99983.00;5048606;28;20051;-84
2023/03/30 07:55:37;;;;;;;;;;;;;;;11.85;nan;99975.19;5028658;28;19943;-84
2023/03/30 07:58:03;;;;;;;;;;;;;;;11.87;nan;99988.28;5029812;28;19973;-83
2023/03/30 08:00:29;;;;;;;;;;;;;;;11.84;nan;99989.41;5052326;28;19913;-85
2023/03/30 08:02:55;;;;;;;;;;;;;;;11.83;nan;99987.78;5043118;28;19973;-84
2023/03/30 08:05:20;;;;;;;;;;;;;;;11.85;nan;99979.66;5043644;28;19913;-85
2023/03/30 08:07:46;;;;;;;;;;;;;;;11.82;nan;99991.44;5027476;28;19921;-84
2023/03/30 08:10:11;;;;;;;;;;;;;;;11.85;nan;99996.38;5032568;28;20447;-84
2023/03/30 08:12:37;;;;;;;;;;;;;;;11.88;nan;100016.44;5042860;28;19920;-83
2023/03/30 08:15:02;;;;;;;;;;;;;;;11.95;nan;100009.44;5041243;28;20123;-83
2023/03/30 08:17:28;;;;;;;;;;;;;;;12.05;nan;100017.16;5023292;28;20088;-84
2023/03/30 08:19:55;;;;;;;;;;;;;;;12.14;nan;100010.00;5049368;28;19913;-83
2023/03/30 08:22:20;;;;;;;;;;;;;;;12.24;nan;100011.41;5022238;28;19963;-84
2023/03/30 08:24:45;;;;;;;;;;;;;;;12.39;nan;100006.19;5040665;28;20196;-85
2023/03/30 08:27:10;;;;;;;;;;;;;;;12.50;nan;99995.16;5040178;28;19913;-84
2023/03/30 08:29:35;;;;;;;;;;;;;;;12.61;nan;99990.44;5048367;28;19958;-84
2023/03/30 08:32:01;;;;;;;;;;;;;;;12.62;nan;99997.41;5041432;28;19963;-84
2023/03/30 08:34:26;;;;;;;;;;;;;;;12.61;nan;100011.66;5023105;28;19913;-84
2023/03/30 08:36:51;;;;;;;;;;;;;;;12.67;nan;100016.25;5041497;28;20285;-84
2023/03/30 08:39:17;;;;;;;;;;;;;;;12.75;nan;100026.81;5042424;28;20363;-85
2023/03/30 08:42:01;;;;;;;;;;;;;;;12.83;nan;100031.25;5042460;28;19981;-84
2023/03/30 08:44:40;;;;;;;;;;;;;;;12.85;nan;100018.63;5022605;28;20363;-84
2023/03/30 08:47:09;;;;;;;;;;;;;;;12.84;nan;100030.22;5022159;28;19912;-84
2023/03/30 08:49:38;;;;;;;;;;;;;;;12.84;nan;99999.19;5023096;28;19962;-84
2023/03/30 08:52:04;;;;;;;;;;;;;;;12.81;nan;100023.44;5040985;28;19920;-85
2023/03/30 08:54:30;;;;;;;;;;;;;;;12.87;nan;100037.81;5040202;28;19913;-83
2023/03/30 08:56:59;;;;;;;;;;;;;;;12.95;nan;100045.72;5041794;28;19917;-84
2023/03/30 08:59:43;;;;;;;;;;;;;;;13.02;nan;100051.16;5040179;28;19913;-84
2023/03/30 09:02:17;;;;;;;;;;;;;;;13.15;nan;100059.31;5043065;28;19913;-84
2023/03/30 09:05:02;;;;;;;;;;;;;;;13.26;nan;100037.63;5045272;28;19980;-85
2023/03/30 09:07:35;;;;;;;;;;;;;;;13.20;nan;100011.81;5045154;28;20401;-84
2023/03/30 09:10:01;;;;;;;;;;;;;;;13.13;nan;100040.94;5029061;28;19912;-83
2023/03/30 09:12:36;;;;;;;;;;;;;;;13.11;nan;100042.13;5043162;28;20165;-84
2023/03/30 09:15:30;;;;;;;;;;;;;;;13.16;nan;100045.03;5038511;28;20345;-84
2023/03/30 09:18:00;;;;;;;;;;;;;;;13.13;nan;100022.34;5029367;28;19932;-83
2023/03/30 09:20:27;;;;;;;;;;;;;;;13.07;nan;100022.22;5037469;28;19924;-84
2023/03/30 09:22:54;;;;;;;;;;;;;;;13.09;nan;100029.00;5038095;28;19913;-82
2023/03/30 09:25:25;;;;;;;;;;;;;;;13.20;nan;100010.97;5029358;28;19966;-84
2023/03/30 09:28:08;;;;;;;;;;;;;;;13.26;nan;100026.19;5021761;28;19948;-85
2023/03/30 09:30:38;;;;;;;;;;;;;;;13.29;nan;100025.88;5037932;28;20226;-84
2023/03/30 09:33:13;;;;;;;;;;;;;;;13.35;nan;100047.22;5039787;28;19956;-84
2023/03/30 09:35:40;;;;;;;;;;;;;;;13.40;nan;100051.97;5038080;28;19975;-85
2023/03/30 09:38:09;;;;;;;;;;;;;;;13.41;nan;100050.13;5020576;28;19919;-84
2023/03/30 09:40:35;;;;;;;;;;;;;;;13.44;nan;100036.50;5043229;28;20003;-83
2023/03/30 09:43:03;;;;;;;;;;;;;;;13.45;nan;100025.69;5038923;28;19930;-83
2023/03/30 09:45:29;;;;;;;;;;;;;;;13.44;nan;100034.66;5038770;28;20403;-84
2023/03/30 09:47:55;;;;;;;;;;;;;;;13.56;nan;100037.69;5039952;28;19996;-84
2023/03/30 09:50:25;;;;;;;;;;;;;;;13.72;nan;100055.28;5038424;28;20420;-84
2023/03/30 09:52:54;;;;;;;;;;;;;;;13.94;nan;100049.03;5022638;28;20004;-84
2023/03/30 09:55:19;;;;;;;;;;;;;;;14.22;nan;100054.47;5034907;28;19924;-84
2023/03/30 09:57:44;;;;;;;;;;;;;;;14.30;nan;100045.56;5040558;28;20015;-85
2023/03/30 10:00:24;;;;;;;;;;;;;;;14.36;nan;100059.94;5021104;28;19912;-84
2023/03/30 10:02:54;;;;;;;;;;;;;;;14.47;nan;100047.97;5034404;28;20366;-84
2023/03/30 10:05:19;;;;;;;;;;;;;;;14.43;nan;100031.59;5040447;28;19948;-84
2023/03/30 10:07:51;;;;;;;;;;;;;;;14.40;nan;100029.31;5041379;28;19916;-84
2023/03/30 10:10:19;;;;;;;;;;;;;;;14.39;nan;100051.59;5039799;28;20273;-84
2023/03/30 10:12:46;;;;;;;;;;;;;;;14.49;nan;100054.78;5037097;28;19913;-82
2023/03/30 10:15:16;;;;;;;;;;;;;;;14.71;nan;100066.28;5043618;28;19917;-83
2023/03/30 10:17:44;;;;;;;;;;;;;;;14.92;nan;100060.13;5026572;28;19976;-84
2023/03/30 10:20:33;;;;;;;;;;;;;;;15.05;nan;100060.22;5016490;28;20011;-83
2023/03/30 10:23:01;;;;;;;;;;;;;;;15.11;nan;100052.47;5027805;28;19917;-84
2023/03/30 10:25:28;;;;;;;;;;;;;;;15.13;nan;100045.94;5034185;28;19921;-83
2023/03/30 10:28:00;;;;;;;;;;;;;;;15.10;nan;100056.19;5018767;28;19913;-83
2023/03/30 10:30:27;;;;;;;;;;;;;;;15.01;nan;100044.81;5015950;28;20282;-84
2023/03/30 10:32:54;;;;;;;;;;;;;;;14.88;nan;100053.53;5035647;28;19913;-84
2023/03/30 10:35:22;;;;;;;;;;;;;;;14.81;nan;100047.34;5035708;28;19924;-85
2023/03/30 10:37:50;;;;;;;;;;;;;;;14.76;nan;100063.88;5041491;28;19920;-85
2023/03/30 10:40:15;;;;;;;;;;;;;;;14.55;nan;100063.88;5040343;28;19917;-85
2023/03/30 10:42:41;;;;;;;;;;;;;;;14.52;nan;100059.72;5020201;28;19943;-84
2023/03/30 10:45:06;;;;;;;;;;;;;;;14.52;nan;100057.06;5036374;28;19928;-85
2023/03/30 10:47:50;;;;;;;;;;;;;;;14.57;nan;100059.19;5037501;28;19923;-84
2023/03/30 10:50:23;;;;;;;;;;;;;;;14.67;nan;100062.34;5043418;28;19984;-84
2023/03/30 10:52:54;;;;;;;;;;;;;;;14.77;nan;100054.03;5018798;28;20000;-84
2023/03/30 10:55:24;;;;;;;;;;;;;;;14.85;nan;100056.59;5036968;28;19927;-84
2023/03/30 10:58:12;;;;;;;;;;;;;;;14.82;nan;100049.78;5040954;28;19921;-84
2023/03/30 11:00:51;;;;;;;;;;;;;;;14.92;nan;100070.78;5002616;28;19936;-85
2023/03/30 11:03:21;;;;;;;;;;;;;;;15.00;nan;100062.66;5040672;28;20040;-82
2023/03/30 11:05:49;;;;;;;;;;;;;;;15.05;nan;100072.72;5032757;28;20007;-83
2023/03/30 11:08:18;;;;;;;;;;;;;;;14.81;nan;100074.75;5042499;28;20142;-83
2023/03/30 11:10:46;;;;;;;;;;;;;;;14.94;nan;100074.06;5033790;28;19913;-84
2023/03/30 11:13:17;;;;;;;;;;;;;;;14.97;nan;100073.69;5025197;28;20028;-84
2023/03/30 11:15:46;;;;;;;;;;;;;;;15.18;nan;100080.00;5023085;28;19917;-83
2023/03/30 11:18:16;;;;;;;;;;;;;;;15.65;nan;100065.16;5040516;28;19920;-83
2023/03/30 11:20:44;;;;;;;;;;;;;;;16.08;nan;100060.47;5039945;28;20135;-82
2023/03/30 11:23:17;;;;;;;;;;;;;;;16.49;nan;100058.75;5020453;28;19929;-84
2023/03/30 11:25:52;;;;;;;;;;;;;;;16.77;nan;100055.94;5031988;28;19913;-85
2023/03/30 11:28:21;;;;;;;;;;;;;;;16.90;nan;100050.63;5021268;28;20457;-83
2023/03/30 11:30:48;;;;;;;;;;;;;;;17.05;nan;100047.75;5021594;28;19918;-84
2023/03/30 11:33:16;;;;;;;;;;;;;;;17.03;nan;100057.81;5037637;28;20052;-83
2023/03/30 11:36:17;;;;;;;;;;;;;;;17.08;nan;100044.66;5035333;28;20367;-84
2023/03/30 11:38:50;;;;;;;;;;;;;;;17.22;nan;100044.66;4990658;28;19918;-83
2023/03/30 11:41:27;;;;;;;;;;;;;;;17.16;nan;100052.50;5028914;28;19922;-85
2023/03/30 11:43:54;;;;;;;;;;;;;;;17.06;nan;100051.25;5038751;28;19917;-83
2023/03/30 11:46:33;;;;;;;;;;;;;;;16.96;nan;100049.00;5039116;28;20016;-83
2023/03/30 11:49:08;;;;;;;;;;;;;;;16.89;nan;100058.84;5039297;28;19917;-82
2023/03/30 11:51:34;;;;;;;;;;;;;;;16.62;nan;100048.09;5022182;28;19913;-83
2023/03/30 11:53:59;;;;;;;;;;;;;;;16.52;nan;100045.03;5043612;28;20290;-83
2023/03/30 11:56:45;;;;;;;;;;;;;;;16.65;nan;100060.22;5042037;28;19943;-83
2023/03/30 11:59:10;;;;;;;;;;;;;;;17.50;nan;100050.59;5174244;23;19974;-82
2023/03/30 12:01:45;;;;;;;;;;;;;;;17.85;nan;100044.94;5065701;28;19911;-82
2023/03/30 12:04:11;;;;;;;;;;;;;;;17.71;nan;100033.47;5090027;28;19926;-82
2023/03/30 12:06:38;;;;;;;;;;;;;;;17.40;nan;100032.31;5078103;28;20384;-82
2023/03/30 12:09:19;;;;;;;;;;;;;;;17.19;nan;100020.00;5086812;28;19912;-82
2023/03/30 12:11:44;;;;;;;;;;;;;;;16.94;nan;100021.66;5076325;28;20333;-82
2023/03/30 12:14:21;;;;;;;;;;;;;;;16.77;nan;99998.00;5053647;28;19913;-82
2023/03/30 12:16:50;;;;;;;;;;;;;;;16.63;nan;99983.00;5076989;28;19952;-82
2023/03/30 12:19:18;;;;;;;;;;;;;;;16.43;nan;99983.00;5073195;28;19916;-82
2023/03/30 12:21:53;;;;;;;;;;;;;;;16.43;nan;99982.19;5068324;28;19947;-82
2023/03/30 12:24:32;;;;;;;;;;;;;;;16.24;nan;99981.94;5086886;28;19916;-82
2023/03/30 12:26:58;;;;;;;;;;;;;;;15.80;nan;99977.09;5076687;28;19995;-82
2023/03/30 12:29:41;;;;;;;;;;;;;;;15.61;nan;99973.28;5093532;28;19951;-82
2023/03/30 12:32:17;;;;;;;;;;;;;;;15.33;nan;99984.84;5076409;28;19934;-82
2023/03/30 12:34:43;;;;;;;;;;;;;;;15.23;nan;99971.88;5072996;28;19912;-82
2023/03/30 12:37:19;;;;;;;;;;;;;;;15.03;nan;99966.41;5054213;28;19928;-82
2023/03/30 12:39:49;;;;;;;;;;;;;;;15.04;nan;99962.75;5078159;28;19930;-82
2023/03/30 12:42:24;;;;;;;;;;;;;;;15.12;nan;99964.41;5068742;28;19916;-82
2023/03/30 12:44:52;;;;;;;;;;;;;;;15.14;nan;99964.22;5080945;28;19923;-81
2023/03/30 12:47:29;;;;;;;;;;;;;;;15.35;nan;99965.97;5069666;28;20147;-82
2023/03/30 12:50:01;;;;;;;;;;;;;;;15.27;nan;99969.63;5078250;28;20314;-82
2023/03/30 12:52:34;;;;;;;;;;;;;;;15.16;nan;99965.69;5091300;28;19920;-82
2023/03/30 12:55:15;;;;;;;;;;;;;;;15.38;nan;99969.09;5066780;28;19916;-82
2023/03/30 12:57:41;;;;;;;;;;;;;;;15.65;nan;99977.19;5073984;28;19923;-82
2023/03/30 13:00:09;;;;;;;;;;;;;;;15.80;nan;99959.25;5071392;28;19916;-82
2023/03/30 13:02:51;;;;;;;;;;;;;;;15.96;nan;99965.25;5084497;28;19912;-82
2023/03/30 13:05:22;;;;;;;;;;;;;;;15.98;nan;99972.03;5077125;28;20019;-81
2023/03/30 13:07:50;;;;;;;;;;;;;;;15.85;nan;99994.13;5073036;28;19973;-82
2023/03/30 13:10:30;;;;;;;;;;;;;;;15.30;nan;99998.53;5056259;28;20006;-82